Weather at Turner Field/Amphibious Base Heliport

Public forecast

Using degrees Fahrenheit for public forecast. Weather courtesy of forecast.io.

Closest aviation weather report (METAR) to Turner Field/Amphibious Base Heliport

Report is more than 6 hours old.

Closest report is North Island Naval Air Station-Halsey Field, 3.3 nm (6.0 km) WNW.

2022/11/14 14:52 (retrieved 2 years ago)

KNZY 141452Z 09005KT 10SM FEW250 09/04 A3010 RMK AO2 SLP192 T00940039 53005

Closest aviation forecast (TAF) to Turner Field/Amphibious Base Heliport

Forecast is more than 12 hours old.

Closest forecast is San Diego International Airport, 3.7 nm (6.9 km) NNW.

2023/02/22 18:42 (retrieved 1 year ago)

TAF KSAN 221739Z 2218/2324 29020G35KT P6SM VCSH SCT030 BKN040 FM221900 28020G30KT P6SM SCT030 SCT040 FM230200 28014G24KT P6SM VCSH SCT030 SCT040 FM231100 27011G18KT P6SM -SHRA SCT030 BKN040